Portada
METAR-TAF:

METAR-TAF

Aeropuertos :

Stevens Point Municipal Airport

Stevens Point, Wisconsin, Estados Unidos

latitud: 44-32-42N, longitud: 089-31-49W, altitud: 338 m

Observación

El informe se hizo hace 20 minutos, a las 07:55 UTC
Viento calma
Temperatura 5°C
Humedad 81%
Presión 1027 hPa
Visibilidad: 16.1 km
Cielo despejado

METAR: KSTE 310755Z AUTO 00000KT 10SM CLR 05/02 A3034 RMK AO2 T00460015

Hora: 03:15 (08:15 UTC)


TAF: falta

Observaciones y pronósticos meteorológicos de más de 4000 aeropuertos (mensajes METAR y TAF).

Los puntos amarillos y rojos representan las estaciones disponibles.

Ponga el ratón en el punto deseado para ver el nombre de la estación.

Haga clic para ver las observaciones y los pronósticos meteorológicos.

Para cambiar el mapa : haga clic en los botones verdes con una cruz de color negro para hacer un zoom, en el botón verde con un guión para alejar o en las flechas verdes para mapas adyacentes.


METAR-TAF: